sensor_id;sensor_type;location;lat;lon;timestamp;P1;P2;P0
73148;PMS7003;61346;48.930;2.266;2023-02-28T00:00:30;18.50;16.75;11.25
73148;PMS7003;61346;48.930;2.266;2023-02-28T00:02:56;24.75;21.50;14.00
73148;PMS7003;61346;48.930;2.266;2023-02-28T00:05:22;21.25;18.25;13.25
73148;PMS7003;61346;48.930;2.266;2023-02-28T00:07:49;17.75;15.75;13.00
73148;PMS7003;61346;48.930;2.266;2023-02-28T00:10:17;16.25;16.00;11.50
73148;PMS7003;61346;48.930;2.266;2023-02-28T00:12:48;14.75;13.75;8.75
73148;PMS7003;61346;48.930;2.266;2023-02-28T00:15:15;13.25;12.00;9.50
73148;PMS7003;61346;48.930;2.266;2023-02-28T00:17:41;18.25;18.25;14.25
73148;PMS7003;61346;48.930;2.266;2023-02-28T00:20:07;20.25;18.75;12.75
73148;PMS7003;61346;48.930;2.266;2023-02-28T00:22:54;24.50;20.75;13.00
73148;PMS7003;61346;48.930;2.266;2023-02-28T00:25:21;21.00;17.50;10.00
73148;PMS7003;61346;48.930;2.266;2023-02-28T00:27:48;15.00;13.75;9.00
73148;PMS7003;61346;48.930;2.266;2023-02-28T00:30:15;26.50;17.00;12.00
73148;PMS7003;61346;48.930;2.266;2023-02-28T00:32:43;17.25;17.00;13.50
73148;PMS7003;61346;48.930;2.266;2023-02-28T00:35:09;18.00;13.75;9.00
73148;PMS7003;61346;48.930;2.266;2023-02-28T00:37:36;16.75;16.75;12.25
73148;PMS7003;61346;48.930;2.266;2023-02-28T00:40:02;17.50;15.25;13.00
73148;PMS7003;61346;48.930;2.266;2023-02-28T00:42:29;13.75;13.75;9.75
73148;PMS7003;61346;48.930;2.266;2023-02-28T00:44:55;15.50;14.50;11.25
73148;PMS7003;61346;48.930;2.266;2023-02-28T00:47:20;16.25;13.75;11.25
73148;PMS7003;61346;48.930;2.266;2023-02-28T00:49:46;17.25;16.50;13.25
73148;PMS7003;61346;48.930;2.266;2023-02-28T00:52:11;17.50;13.50;10.50
73148;PMS7003;61346;48.930;2.266;2023-02-28T00:54:36;20.75;20.75;15.75
73148;PMS7003;61346;48.930;2.266;2023-02-28T00:57:02;19.50;17.75;12.75
73148;PMS7003;61346;48.930;2.266;2023-02-28T00:59:27;18.75;17.25;10.75
73148;PMS7003;61346;48.930;2.266;2023-02-28T01:01:53;13.25;11.50;10.00
73148;PMS7003;61346;48.930;2.266;2023-02-28T01:04:18;19.50;18.00;13.75
73148;PMS7003;61346;48.930;2.266;2023-02-28T01:06:45;13.00;12.00;9.00
73148;PMS7003;61346;48.930;2.266;2023-02-28T01:09:11;16.00;11.25;8.50
73148;PMS7003;61346;48.930;2.266;2023-02-28T01:11:37;21.25;17.50;14.25
73148;PMS7003;61346;48.930;2.266;2023-02-28T01:14:06;16.75;13.00;9.00
73148;PMS7003;61346;48.930;2.266;2023-02-28T01:16:33;18.75;15.75;10.25
73148;PMS7003;61346;48.930;2.266;2023-02-28T01:18:58;18.25;17.25;13.00
73148;PMS7003;61346;48.930;2.266;2023-02-28T01:21:24;19.00;16.25;11.25
73148;PMS7003;61346;48.930;2.266;2023-02-28T01:23:49;13.00;13.00;10.25
73148;PMS7003;61346;48.930;2.266;2023-02-28T01:26:24;16.50;16.50;12.75
73148;PMS7003;61346;48.930;2.266;2023-02-28T01:28:50;20.00;17.00;12.50
73148;PMS7003;61346;48.930;2.266;2023-02-28T01:31:16;15.75;14.00;9.25
73148;PMS7003;61346;48.930;2.266;2023-02-28T01:33:43;15.25;15.25;12.00
73148;PMS7003;61346;48.930;2.266;2023-02-28T01:36:12;18.25;15.75;12.75
73148;PMS7003;61346;48.930;2.266;2023-02-28T01:38:37;15.75;15.75;11.25
73148;PMS7003;61346;48.930;2.266;2023-02-28T01:41:04;16.25;12.50;8.75
73148;PMS7003;61346;48.930;2.266;2023-02-28T01:43:35;13.50;13.50;9.50
73148;PMS7003;61346;48.930;2.266;2023-02-28T01:46:21;16.00;12.00;9.00
73148;PMS7003;61346;48.930;2.266;2023-02-28T01:51:49;22.50;16.50;12.00
73148;PMS7003;61346;48.930;2.266;2023-02-28T01:54:27;17.00;16.25;12.00
73148;PMS7003;61346;48.930;2.266;2023-02-28T01:57:00;13.75;13.00;9.00
73148;PMS7003;61346;48.930;2.266;2023-02-28T01:59:31;15.25;13.00;10.00
73148;PMS7003;61346;48.930;2.266;2023-02-28T02:02:18;13.75;13.75;11.25
73148;PMS7003;61346;48.930;2.266;2023-02-28T02:07:32;18.00;14.25;9.75
73148;PMS7003;61346;48.930;2.266;2023-02-28T02:12:48;17.75;16.50;12.25
73148;PMS7003;61346;48.930;2.266;2023-02-28T02:15:40;13.00;9.75;7.50
73148;PMS7003;61346;48.930;2.266;2023-02-28T02:32:46;16.50;14.25;11.00
73148;PMS7003;61346;48.930;2.266;2023-02-28T02:38:25;13.00;10.25;8.50
73148;PMS7003;61346;48.930;2.266;2023-02-28T02:43:50;6.75;6.00;4.00
73148;PMS7003;61346;48.930;2.266;2023-02-28T02:46:25;11.00;11.00;9.00
73148;PMS7003;61346;48.930;2.266;2023-02-28T02:49:03;16.25;13.00;9.00
73148;PMS7003;61346;48.930;2.266;2023-02-28T02:51:31;12.50;12.50;9.50
73148;PMS7003;61346;48.930;2.266;2023-02-28T02:56:45;14.25;12.25;10.25
73148;PMS7003;61346;48.930;2.266;2023-02-28T02:59:13;14.50;13.00;10.50
73148;PMS7003;61346;48.930;2.266;2023-02-28T03:01:45;13.75;11.25;8.75
73148;PMS7003;61346;48.930;2.266;2023-02-28T03:04:34;14.50;12.75;11.25
73148;PMS7003;61346;48.930;2.266;2023-02-28T03:07:08;13.00;9.75;9.00
73148;PMS7003;61346;48.930;2.266;2023-02-28T03:09:34;14.50;14.00;11.50
73148;PMS7003;61346;48.930;2.266;2023-02-28T03:12:03;12.75;12.75;9.75
73148;PMS7003;61346;48.930;2.266;2023-02-28T03:20:08;15.00;15.00;9.00
73148;PMS7003;61346;48.930;2.266;2023-02-28T03:23:03;16.00;13.00;11.00
73148;PMS7003;61346;48.930;2.266;2023-02-28T03:26:02;12.75;10.75;8.50
73148;PMS7003;61346;48.930;2.266;2023-02-28T03:31:13;14.50;12.00;8.50
73148;PMS7003;61346;48.930;2.266;2023-02-28T03:33:49;14.75;12.75;9.75
73148;PMS7003;61346;48.930;2.266;2023-02-28T03:36:20;11.25;11.25;9.00
73148;PMS7003;61346;48.930;2.266;2023-02-28T03:38:52;16.00;13.25;9.50
73148;PMS7003;61346;48.930;2.266;2023-02-28T03:41:27;12.25;11.25;9.25
73148;PMS7003;61346;48.930;2.266;2023-02-28T03:44:05;12.25;11.50;9.75
73148;PMS7003;61346;48.930;2.266;2023-02-28T03:46:40;12.00;11.00;9.00
73148;PMS7003;61346;48.930;2.266;2023-02-28T03:49:18;12.50;11.50;7.50
73148;PMS7003;61346;48.930;2.266;2023-02-28T03:51:48;13.50;11.50;8.50
73148;PMS7003;61346;48.930;2.266;2023-02-28T03:54:18;14.00;11.25;8.50
73148;PMS7003;61346;48.930;2.266;2023-02-28T03:56:59;10.75;8.00;7.00
73148;PMS7003;61346;48.930;2.266;2023-02-28T03:59:34;12.00;12.00;9.75
73148;PMS7003;61346;48.930;2.266;2023-02-28T04:02:04;15.25;13.50;11.25
73148;PMS7003;61346;48.930;2.266;2023-02-28T04:04:30;12.00;11.00;9.00
73148;PMS7003;61346;48.930;2.266;2023-02-28T04:07:01;15.50;15.50;11.00
73148;PMS7003;61346;48.930;2.266;2023-02-28T04:09:36;15.25;12.00;10.00
73148;PMS7003;61346;48.930;2.266;2023-02-28T04:12:02;14.50;12.00;7.50
73148;PMS7003;61346;48.930;2.266;2023-02-28T04:14:27;8.25;6.50;5.00
73148;PMS7003;61346;48.930;2.266;2023-02-28T04:16:52;12.25;11.00;9.00
73148;PMS7003;61346;48.930;2.266;2023-02-28T04:19:18;13.00;12.25;9.50
73148;PMS7003;61346;48.930;2.266;2023-02-28T04:21:44;12.75;11.75;8.75
73148;PMS7003;61346;48.930;2.266;2023-02-28T04:24:15;13.50;12.25;8.50
73148;PMS7003;61346;48.930;2.266;2023-02-28T04:26:44;15.25;12.75;11.00
73148;PMS7003;61346;48.930;2.266;2023-02-28T04:29:11;14.25;14.25;10.75
73148;PMS7003;61346;48.930;2.266;2023-02-28T04:31:38;12.00;12.00;9.00
73148;PMS7003;61346;48.930;2.266;2023-02-28T04:34:04;16.50;16.50;12.00
73148;PMS7003;61346;48.930;2.266;2023-02-28T04:36:31;17.75;16.00;12.00
73148;PMS7003;61346;48.930;2.266;2023-02-28T04:38:56;16.25;12.75;9.25
73148;PMS7003;61346;48.930;2.266;2023-02-28T04:41:22;22.25;17.25;11.75
73148;PMS7003;61346;48.930;2.266;2023-02-28T04:43:48;9.00;7.00;6.25
73148;PMS7003;61346;48.930;2.266;2023-02-28T04:46:13;16.00;16.00;12.00
73148;PMS7003;61346;48.930;2.266;2023-02-28T04:48:39;16.25;12.25;9.00
73148;PMS7003;61346;48.930;2.266;2023-02-28T04:51:06;13.50;13.50;10.75
73148;PMS7003;61346;48.930;2.266;2023-02-28T04:53:33;16.00;14.50;11.50
73148;PMS7003;61346;48.930;2.266;2023-02-28T04:55:59;16.00;15.75;10.50
73148;PMS7003;61346;48.930;2.266;2023-02-28T04:58:25;13.00;11.50;9.00
73148;PMS7003;61346;48.930;2.266;2023-02-28T05:00:51;11.25;8.75;5.50
73148;PMS7003;61346;48.930;2.266;2023-02-28T05:03:17;16.50;14.75;10.50
73148;PMS7003;61346;48.930;2.266;2023-02-28T05:05:43;14.00;13.75;11.00
73148;PMS7003;61346;48.930;2.266;2023-02-28T05:08:08;16.50;15.25;11.00
73148;PMS7003;61346;48.930;2.266;2023-02-28T05:10:34;15.25;12.00;8.50
73148;PMS7003;61346;48.930;2.266;2023-02-28T05:13:01;18.75;14.75;11.00
73148;PMS7003;61346;48.930;2.266;2023-02-28T05:15:27;22.25;18.50;11.25
73148;PMS7003;61346;48.930;2.266;2023-02-28T05:17:52;24.00;18.75;12.75
73148;PMS7003;61346;48.930;2.266;2023-02-28T05:20:18;14.00;14.00;11.00
73148;PMS7003;61346;48.930;2.266;2023-02-28T05:22:43;16.50;12.75;8.25
73148;PMS7003;61346;48.930;2.266;2023-02-28T05:25:13;19.25;18.25;13.25
73148;PMS7003;61346;48.930;2.266;2023-02-28T05:27:44;15.25;13.00;9.25
73148;PMS7003;61346;48.930;2.266;2023-02-28T05:30:10;18.75;15.75;12.00
73148;PMS7003;61346;48.930;2.266;2023-02-28T05:32:36;20.75;18.00;12.75
73148;PMS7003;61346;48.930;2.266;2023-02-28T05:35:02;28.75;24.25;16.25
73148;PMS7003;61346;48.930;2.266;2023-02-28T05:37:29;20.00;16.25;11.75
73148;PMS7003;61346;48.930;2.266;2023-02-28T05:39:54;25.00;20.50;15.50
73148;PMS7003;61346;48.930;2.266;2023-02-28T05:42:19;19.00;17.50;14.00
73148;PMS7003;61346;48.930;2.266;2023-02-28T05:44:46;21.25;19.25;15.00
73148;PMS7003;61346;48.930;2.266;2023-02-28T05:47:11;15.50;12.00;9.00
73148;PMS7003;61346;48.930;2.266;2023-02-28T05:49:40;25.75;18.00;15.00
73148;PMS7003;61346;48.930;2.266;2023-02-28T05:52:06;23.25;20.50;14.00
73148;PMS7003;61346;48.930;2.266;2023-02-28T05:54:31;22.75;20.50;13.75
73148;PMS7003;61346;48.930;2.266;2023-02-28T05:56:57;25.50;23.75;18.50
73148;PMS7003;61346;48.930;2.266;2023-02-28T05:59:22;43.00;36.75;26.00
73148;PMS7003;61346;48.930;2.266;2023-02-28T06:01:50;25.75;23.00;16.25
73148;PMS7003;61346;48.930;2.266;2023-02-28T06:04:18;24.25;18.25;12.25
73148;PMS7003;61346;48.930;2.266;2023-02-28T06:06:45;27.75;25.50;16.75
73148;PMS7003;61346;48.930;2.266;2023-02-28T06:09:14;24.00;21.25;15.00
73148;PMS7003;61346;48.930;2.266;2023-02-28T06:11:40;32.00;25.50;17.00
73148;PMS7003;61346;48.930;2.266;2023-02-28T06:14:06;31.25;24.25;18.25
73148;PMS7003;61346;48.930;2.266;2023-02-28T06:16:32;32.25;27.50;19.00
73148;PMS7003;61346;48.930;2.266;2023-02-28T06:19:00;30.00;27.00;19.50
73148;PMS7003;61346;48.930;2.266;2023-02-28T06:21:27;34.75;28.00;20.25
73148;PMS7003;61346;48.930;2.266;2023-02-28T06:23:53;29.75;26.50;18.50
73148;PMS7003;61346;48.930;2.266;2023-02-28T06:26:19;35.50;31.75;20.25
73148;PMS7003;61346;48.930;2.266;2023-02-28T06:28:45;34.75;25.75;19.25
73148;PMS7003;61346;48.930;2.266;2023-02-28T06:31:11;32.25;27.00;18.00
73148;PMS7003;61346;48.930;2.266;2023-02-28T06:33:38;32.25;26.75;18.75
73148;PMS7003;61346;48.930;2.266;2023-02-28T06:36:05;40.00;32.25;21.75
73148;PMS7003;61346;48.930;2.266;2023-02-28T06:38:31;31.25;28.00;18.50
73148;PMS7003;61346;48.930;2.266;2023-02-28T06:40:58;41.50;30.50;20.25
73148;PMS7003;61346;48.930;2.266;2023-02-28T06:43:27;43.50;36.50;23.75
73148;PMS7003;61346;48.930;2.266;2023-02-28T06:45:54;34.25;31.00;21.50
73148;PMS7003;61346;48.930;2.266;2023-02-28T06:48:21;31.00;26.25;20.50
73148;PMS7003;61346;48.930;2.266;2023-02-28T06:50:46;34.00;28.25;18.75
73148;PMS7003;61346;48.930;2.266;2023-02-28T06:53:12;27.00;25.50;19.75
73148;PMS7003;61346;48.930;2.266;2023-02-28T06:55:38;32.25;28.00;18.00
73148;PMS7003;61346;48.930;2.266;2023-02-28T06:58:04;34.00;31.50;22.75
73148;PMS7003;61346;48.930;2.266;2023-02-28T07:00:39;38.00;32.25;23.00
73148;PMS7003;61346;48.930;2.266;2023-02-28T07:03:12;37.50;33.00;24.75
73148;PMS7003;61346;48.930;2.266;2023-02-28T07:05:40;38.50;31.00;22.50
73148;PMS7003;61346;48.930;2.266;2023-02-28T07:08:06;40.00;31.00;24.25
73148;PMS7003;61346;48.930;2.266;2023-02-28T07:10:32;28.75;26.50;18.00
73148;PMS7003;61346;48.930;2.266;2023-02-28T07:12:58;40.00;34.00;20.50
73148;PMS7003;61346;48.930;2.266;2023-02-28T07:15:25;32.50;28.25;21.50
73148;PMS7003;61346;48.930;2.266;2023-02-28T07:17:50;38.25;29.75;18.25
73148;PMS7003;61346;48.930;2.266;2023-02-28T07:20:16;47.75;39.75;25.50
73148;PMS7003;61346;48.930;2.266;2023-02-28T07:22:42;37.75;30.50;23.75
73148;PMS7003;61346;48.930;2.266;2023-02-28T07:25:08;32.50;29.50;21.75
73148;PMS7003;61346;48.930;2.266;2023-02-28T07:27:33;32.00;32.00;21.75
73148;PMS7003;61346;48.930;2.266;2023-02-28T07:30:00;37.75;32.25;24.00
73148;PMS7003;61346;48.930;2.266;2023-02-28T07:32:29;31.00;29.00;21.00
73148;PMS7003;61346;48.930;2.266;2023-02-28T07:34:55;38.50;34.50;22.00
73148;PMS7003;61346;48.930;2.266;2023-02-28T07:37:21;36.50;31.00;21.25
73148;PMS7003;61346;48.930;2.266;2023-02-28T07:39:47;31.50;30.25;22.25
73148;PMS7003;61346;48.930;2.266;2023-02-28T07:42:12;33.00;32.25;24.75
73148;PMS7003;61346;48.930;2.266;2023-02-28T07:44:38;36.75;29.75;18.75
73148;PMS7003;61346;48.930;2.266;2023-02-28T07:47:09;37.25;26.75;18.75
73148;PMS7003;61346;48.930;2.266;2023-02-28T07:49:35;37.50;33.50;22.00
73148;PMS7003;61346;48.930;2.266;2023-02-28T07:52:02;35.50;30.75;21.25
73148;PMS7003;61346;48.930;2.266;2023-02-28T07:54:32;31.75;28.50;18.25
73148;PMS7003;61346;48.930;2.266;2023-02-28T07:56:58;45.50;39.00;27.25
73148;PMS7003;61346;48.930;2.266;2023-02-28T07:59:23;30.50;30.00;19.00
73148;PMS7003;61346;48.930;2.266;2023-02-28T08:01:49;41.50;36.00;22.75
73148;PMS7003;61346;48.930;2.266;2023-02-28T08:04:19;35.75;29.50;21.75
73148;PMS7003;61346;48.930;2.266;2023-02-28T08:06:45;38.00;32.50;24.25
73148;PMS7003;61346;48.930;2.266;2023-02-28T08:09:11;27.50;24.75;17.00
73148;PMS7003;61346;48.930;2.266;2023-02-28T08:11:36;32.00;29.25;22.00
73148;PMS7003;61346;48.930;2.266;2023-02-28T08:14:02;36.25;29.75;22.00
73148;PMS7003;61346;48.930;2.266;2023-02-28T08:16:43;37.00;30.25;21.50
73148;PMS7003;61346;48.930;2.266;2023-02-28T08:19:08;32.50;26.00;18.75
73148;PMS7003;61346;48.930;2.266;2023-02-28T08:21:34;32.75;28.00;20.25
73148;PMS7003;61346;48.930;2.266;2023-02-28T08:24:00;44.25;36.25;24.50
73148;PMS7003;61346;48.930;2.266;2023-02-28T08:26:25;35.75;30.00;23.50
73148;PMS7003;61346;48.930;2.266;2023-02-28T08:28:51;39.00;35.75;24.50
73148;PMS7003;61346;48.930;2.266;2023-02-28T08:31:17;36.50;30.50;21.25
73148;PMS7003;61346;48.930;2.266;2023-02-28T08:33:52;34.75;28.75;19.00
73148;PMS7003;61346;48.930;2.266;2023-02-28T08:36:18;36.00;34.25;24.00
73148;PMS7003;61346;48.930;2.266;2023-02-28T08:38:45;32.25;27.50;19.25
73148;PMS7003;61346;48.930;2.266;2023-02-28T08:41:11;33.00;31.00;23.00
73148;PMS7003;61346;48.930;2.266;2023-02-28T08:43:39;35.00;31.50;20.50
73148;PMS7003;61346;48.930;2.266;2023-02-28T08:46:06;34.25;31.50;21.25
73148;PMS7003;61346;48.930;2.266;2023-02-28T08:48:33;32.50;27.75;20.75
73148;PMS7003;61346;48.930;2.266;2023-02-28T08:51:01;33.75;30.00;20.50
73148;PMS7003;61346;48.930;2.266;2023-02-28T08:53:32;32.25;28.25;21.25
73148;PMS7003;61346;48.930;2.266;2023-02-28T08:55:59;28.75;24.50;16.00
73148;PMS7003;61346;48.930;2.266;2023-02-28T08:58:26;34.50;28.50;21.50
73148;PMS7003;61346;48.930;2.266;2023-02-28T09:00:52;32.75;28.75;20.50
73148;PMS7003;61346;48.930;2.266;2023-02-28T09:03:18;35.00;33.00;23.00
73148;PMS7003;61346;48.930;2.266;2023-02-28T09:05:51;36.00;29.50;19.25
73148;PMS7003;61346;48.930;2.266;2023-02-28T09:08:27;35.25;29.25;21.75
73148;PMS7003;61346;48.930;2.266;2023-02-28T09:10:55;31.25;28.00;22.25
73148;PMS7003;61346;48.930;2.266;2023-02-28T09:13:22;28.25;26.50;19.25
73148;PMS7003;61346;48.930;2.266;2023-02-28T09:15:49;26.00;25.00;21.00
73148;PMS7003;61346;48.930;2.266;2023-02-28T09:18:15;28.25;25.75;19.25
73148;PMS7003;61346;48.930;2.266;2023-02-28T09:20:41;30.75;27.50;18.00
73148;PMS7003;61346;48.930;2.266;2023-02-28T09:23:07;25.00;22.00;17.00
73148;PMS7003;61346;48.930;2.266;2023-02-28T09:25:36;34.50;28.75;22.75
73148;PMS7003;61346;48.930;2.266;2023-02-28T09:28:03;37.75;32.00;22.75
73148;PMS7003;61346;48.930;2.266;2023-02-28T09:30:28;29.50;26.25;18.00
73148;PMS7003;61346;48.930;2.266;2023-02-28T09:32:57;38.00;29.50;20.25
73148;PMS7003;61346;48.930;2.266;2023-02-28T09:35:23;30.50;26.75;18.00
73148;PMS7003;61346;48.930;2.266;2023-02-28T09:37:54;25.75;24.25;18.75
73148;PMS7003;61346;48.930;2.266;2023-02-28T09:40:29;22.75;22.25;16.25
73148;PMS7003;61346;48.930;2.266;2023-02-28T09:42:56;27.50;24.25;16.50
73148;PMS7003;61346;48.930;2.266;2023-02-28T09:45:26;34.75;27.00;18.75
73148;PMS7003;61346;48.930;2.266;2023-02-28T09:48:14;29.00;24.50;18.00
73148;PMS7003;61346;48.930;2.266;2023-02-28T09:50:47;29.25;22.50;16.25
73148;PMS7003;61346;48.930;2.266;2023-02-28T09:56:14;26.50;19.75;15.50
73148;PMS7003;61346;48.930;2.266;2023-02-28T09:59:41;27.00;25.75;19.25
73148;PMS7003;61346;48.930;2.266;2023-02-28T10:05:11;28.75;27.50;19.00
73148;PMS7003;61346;48.930;2.266;2023-02-28T10:10:36;27.50;26.00;17.25
73148;PMS7003;61346;48.930;2.266;2023-02-28T10:16:05;28.75;25.50;18.75
73148;PMS7003;61346;48.930;2.266;2023-02-28T10:21:55;31.75;27.25;18.75
73148;PMS7003;61346;48.930;2.266;2023-02-28T10:27:41;30.00;25.75;15.75
73148;PMS7003;61346;48.930;2.266;2023-02-28T10:30:09;19.00;19.00;15.00
73148;PMS7003;61346;48.930;2.266;2023-02-28T10:32:51;24.25;19.25;14.00
73148;PMS7003;61346;48.930;2.266;2023-02-28T10:35:38;24.50;21.25;16.00
73148;PMS7003;61346;48.930;2.266;2023-02-28T10:38:25;12.00;12.00;10.00
73148;PMS7003;61346;48.930;2.266;2023-02-28T10:41:15;18.50;17.25;13.00
73148;PMS7003;61346;48.930;2.266;2023-02-28T10:47:18;20.75;15.25;12.50
73148;PMS7003;61346;48.930;2.266;2023-02-28T10:49:48;23.25;18.50;14.50
73148;PMS7003;61346;48.930;2.266;2023-02-28T10:52:32;20.25;18.50;14.75
73148;PMS7003;61346;48.930;2.266;2023-02-28T10:55:18;19.50;17.75;14.25
73148;PMS7003;61346;48.930;2.266;2023-02-28T10:57:47;21.50;20.50;13.00
73148;PMS7003;61346;48.930;2.266;2023-02-28T11:00:25;20.75;16.75;13.50
73148;PMS7003;61346;48.930;2.266;2023-02-28T11:02:59;14.75;14.00;11.00
73148;PMS7003;61346;48.930;2.266;2023-02-28T11:05:31;14.75;13.25;11.00
73148;PMS7003;61346;48.930;2.266;2023-02-28T11:08:05;14.50;13.50;10.75
73148;PMS7003;61346;48.930;2.266;2023-02-28T13:21:24;17.50;14.25;11.00
73148;PMS7003;61346;48.930;2.266;2023-02-28T13:29:50;16.00;16.00;13.25
73148;PMS7003;61346;48.930;2.266;2023-02-28T13:49:26;14.25;12.50;9.00
73148;PMS7003;61346;48.930;2.266;2023-02-28T13:52:27;13.50;12.50;9.00
73148;PMS7003;61346;48.930;2.266;2023-02-28T14:07:43;13.00;13.00;9.75
73148;PMS7003;61346;48.930;2.266;2023-02-28T14:10:43;12.50;11.50;8.00
73148;PMS7003;61346;48.930;2.266;2023-02-28T14:13:55;7.50;7.50;6.00
73148;PMS7003;61346;48.930;2.266;2023-02-28T14:16:43;11.75;11.75;9.00
73148;PMS7003;61346;48.930;2.266;2023-02-28T14:26:00;16.00;14.25;11.00
73148;PMS7003;61346;48.930;2.266;2023-02-28T15:09:32;16.75;13.75;11.50
73148;PMS7003;61346;48.930;2.266;2023-02-28T15:12:20;12.00;12.00;9.50
73148;PMS7003;61346;48.930;2.266;2023-02-28T15:36:21;12.25;11.25;9.00
73148;PMS7003;61346;48.930;2.266;2023-02-28T15:39:47;13.50;13.25;10.00
73148;PMS7003;61346;48.930;2.266;2023-02-28T15:49:12;14.25;11.75;8.75
73148;PMS7003;61346;48.930;2.266;2023-02-28T15:55:31;11.00;11.00;9.00
73148;PMS7003;61346;48.930;2.266;2023-02-28T15:57:57;13.50;13.25;10.50
73148;PMS7003;61346;48.930;2.266;2023-02-28T16:01:38;12.75;12.75;9.00
73148;PMS7003;61346;48.930;2.266;2023-02-28T16:06:39;17.00;14.75;10.50
73148;PMS7003;61346;48.930;2.266;2023-02-28T16:09:12;13.00;13.00;9.75
73148;PMS7003;61346;48.930;2.266;2023-02-28T16:12:00;15.00;12.25;10.00
73148;PMS7003;61346;48.930;2.266;2023-02-28T16:14:44;16.00;13.75;9.25
73148;PMS7003;61346;48.930;2.266;2023-02-28T16:25:03;9.25;8.25;5.25
73148;PMS7003;61346;48.930;2.266;2023-02-28T16:31:12;13.00;10.50;8.75
73148;PMS7003;61346;48.930;2.266;2023-02-28T16:33:52;13.25;11.25;9.00
73148;PMS7003;61346;48.930;2.266;2023-02-28T16:36:19;16.75;14.25;8.75
73148;PMS7003;61346;48.930;2.266;2023-02-28T16:38:50;12.75;12.75;9.00
73148;PMS7003;61346;48.930;2.266;2023-02-28T16:41:23;12.25;12.25;10.00
73148;PMS7003;61346;48.930;2.266;2023-02-28T16:44:10;10.75;10.00;8.00
73148;PMS7003;61346;48.930;2.266;2023-02-28T16:47:10;10.25;10.25;9.00
73148;PMS7003;61346;48.930;2.266;2023-02-28T16:49:36;10.75;10.25;8.50
73148;PMS7003;61346;48.930;2.266;2023-02-28T16:52:04;10.75;9.50;7.50
73148;PMS7003;61346;48.930;2.266;2023-02-28T16:54:55;14.00;12.25;9.00
73148;PMS7003;61346;48.930;2.266;2023-02-28T16:57:21;15.25;13.75;9.00
73148;PMS7003;61346;48.930;2.266;2023-02-28T17:11:00;12.25;10.00;7.75
73148;PMS7003;61346;48.930;2.266;2023-02-28T17:13:47;13.75;12.00;10.00
73148;PMS7003;61346;48.930;2.266;2023-02-28T17:16:30;10.25;10.25;8.00
73148;PMS7003;61346;48.930;2.266;2023-02-28T17:18:58;16.00;14.25;9.75
73148;PMS7003;61346;48.930;2.266;2023-02-28T17:21:28;13.00;11.00;8.50
73148;PMS7003;61346;48.930;2.266;2023-02-28T17:27:03;9.50;9.50;8.00
73148;PMS7003;61346;48.930;2.266;2023-02-28T17:29:34;12.00;8.50;6.00
73148;PMS7003;61346;48.930;2.266;2023-02-28T17:32:00;16.50;15.50;10.50
73148;PMS7003;61346;48.930;2.266;2023-02-28T17:34:25;12.50;12.25;8.50
73148;PMS7003;61346;48.930;2.266;2023-02-28T17:36:54;12.50;11.00;8.00
73148;PMS7003;61346;48.930;2.266;2023-02-28T17:39:39;14.25;12.50;9.25
73148;PMS7003;61346;48.930;2.266;2023-02-28T17:42:12;17.00;13.00;10.50
73148;PMS7003;61346;48.930;2.266;2023-02-28T21:41:51;19.75;17.00;14.25
73148;PMS7003;61346;48.930;2.266;2023-02-28T21:44:17;21.50;18.00;14.50
73148;PMS7003;61346;48.930;2.266;2023-02-28T21:46:46;16.00;15.00;11.25
73148;PMS7003;61346;48.930;2.266;2023-02-28T21:55:34;20.00;18.00;14.00
73148;PMS7003;61346;48.930;2.266;2023-02-28T21:58:19;23.00;18.75;13.50
73148;PMS7003;61346;48.930;2.266;2023-02-28T22:00:45;18.25;16.50;13.00
73148;PMS7003;61346;48.930;2.266;2023-02-28T22:03:11;22.00;19.50;14.25
73148;PMS7003;61346;48.930;2.266;2023-02-28T22:05:37;22.00;20.75;15.25
73148;PMS7003;61346;48.930;2.266;2023-02-28T22:08:06;19.00;15.50;11.25
73148;PMS7003;61346;48.930;2.266;2023-02-28T22:10:32;23.50;20.50;15.00
73148;PMS7003;61346;48.930;2.266;2023-02-28T22:12:59;24.25;18.00;11.50
73148;PMS7003;61346;48.930;2.266;2023-02-28T22:15:28;18.00;18.00;12.50
73148;PMS7003;61346;48.930;2.266;2023-02-28T22:18:08;23.25;20.25;14.75
73148;PMS7003;61346;48.930;2.266;2023-02-28T22:21:05;19.75;17.75;12.75
73148;PMS7003;61346;48.930;2.266;2023-02-28T22:23:43;23.25;19.75;14.50
73148;PMS7003;61346;48.930;2.266;2023-02-28T22:26:10;24.50;20.00;12.75
73148;PMS7003;61346;48.930;2.266;2023-02-28T22:28:38;26.50;20.25;15.00
73148;PMS7003;61346;48.930;2.266;2023-02-28T22:33:43;20.50;18.00;13.00
73148;PMS7003;61346;48.930;2.266;2023-02-28T22:36:09;18.75;18.50;14.00
73148;PMS7003;61346;48.930;2.266;2023-02-28T22:38:36;17.50;16.50;13.00
73148;PMS7003;61346;48.930;2.266;2023-02-28T22:41:02;21.25;17.75;14.00
73148;PMS7003;61346;48.930;2.266;2023-02-28T22:43:30;18.75;17.75;13.50
73148;PMS7003;61346;48.930;2.266;2023-02-28T22:45:59;17.25;17.25;13.00
73148;PMS7003;61346;48.930;2.266;2023-02-28T22:48:39;20.25;17.75;13.50
73148;PMS7003;61346;48.930;2.266;2023-02-28T22:51:11;22.25;15.00;11.00
73148;PMS7003;61346;48.930;2.266;2023-02-28T23:03:22;23.00;20.00;14.00
73148;PMS7003;61346;48.930;2.266;2023-02-28T23:05:52;21.00;17.00;12.50
73148;PMS7003;61346;48.930;2.266;2023-02-28T23:08:36;23.50;18.25;12.75
73148;PMS7003;61346;48.930;2.266;2023-02-28T23:11:06;18.75;15.00;11.50
73148;PMS7003;61346;48.930;2.266;2023-02-28T23:13:32;20.00;17.25;13.25
73148;PMS7003;61346;48.930;2.266;2023-02-28T23:15:57;18.50;18.50;13.75
73148;PMS7003;61346;48.930;2.266;2023-02-28T23:18:23;22.75;20.00;15.00
73148;PMS7003;61346;48.930;2.266;2023-02-28T23:20:54;25.75;21.75;14.00
73148;PMS7003;61346;48.930;2.266;2023-02-28T23:23:28;25.00;23.75;17.00
73148;PMS7003;61346;48.930;2.266;2023-02-28T23:25:53;20.75;20.25;14.00
73148;PMS7003;61346;48.930;2.266;2023-02-28T23:28:19;23.50;19.75;13.00
73148;PMS7003;61346;48.930;2.266;2023-02-28T23:30:47;13.25;9.50;2.75
73148;PMS7003;61346;48.930;2.266;2023-02-28T23:33:13;23.75;19.25;13.25
73148;PMS7003;61346;48.930;2.266;2023-02-28T23:35:38;23.25;22.75;16.50
73148;PMS7003;61346;48.930;2.266;2023-02-28T23:38:03;22.50;19.00;13.50
73148;PMS7003;61346;48.930;2.266;2023-02-28T23:40:29;25.25;23.25;14.00
73148;PMS7003;61346;48.930;2.266;2023-02-28T23:43:37;22.00;18.75;13.00
73148;PMS7003;61346;48.930;2.266;2023-02-28T23:46:05;28.25;21.50;15.75
73148;PMS7003;61346;48.930;2.266;2023-02-28T23:48:35;20.75;19.75;15.25
73148;PMS7003;61346;48.930;2.266;2023-02-28T23:51:08;23.50;17.50;13.00
73148;PMS7003;61346;48.930;2.266;2023-02-28T23:53:41;20.00;17.50;14.00
73148;PMS7003;61346;48.930;2.266;2023-02-28T23:56:12;29.00;22.00;15.50
73148;PMS7003;61346;48.930;2.266;2023-02-28T23:58:59;20.75;18.00;13.75
